Main page
METAR-TAF:

METAR-TAF

Airports :

Edinburgh Airport

Edinburgh, Scotland

latitude: 55-57N, longitude: 003-21W, elevation: 41 m

Current weather observation

The report was made 24 minutes ago, at 22:50 UTC
Wind 4 kt from the West/Southwest
Temperature 13°C
Humidity 88%
Pressure 1028 hPa
Visibility 10 km or more
no clouds below 1500 m and no cumulonimbus

METAR: EGPH 092250Z 25004KT CAVOK 13/11 Q1028

Time: 00:14 (23:14 UTC)

Forecast

The report was made 6 hours and 19 minutes ago, at 16:55 UTC
Forecast valid from 09 at 18 UTC to 10 at 18 UTC
Wind 9 kt from the West
Visibility 10 km or more
Few clouds at a height of 4000 ft
Probability 30%
from 10 at 04 UTC to 10 at 06 UTC
Visibility: 4000 m
mist

TAF: EGPH 091655Z 0918/1018 26009KT 9999 FEW040 PROB30 1004/1006 4000 BR

Weather observations and forecasts of more than 4000 airports (METAR and TAF reports).

The available stations are represented by yellow and red dots on the map.

Hover mouse over dot to see the name of the station.

Then click to see weather observations and forecasts.

To change the map : click on the green buttons with a black cross to zoom in, on the green button with a dash to zoom out, or on the green arrows for adjacent maps.


METAR-TAF: